Time;durP1;ratioP1;P1;durP2;ratioP2;P2;SDS_P1;SDS_P2;PMS_P1;PMS_P2;Temp;Humidity;BMP_temperature;BMP_pressure;BME280_temperature;BME280_humidity;BME280_pressure;Samples;Min_cycle;Max_cycle;Signal;HPM_P1;HPM_P2
2022/12/12 00:01:33;;;;;;;37.30;18.98;;;-0.60;99.90;;;;;;4368223;28;9999927;-75
2022/12/12 00:03:59;;;;;;;38.50;18.92;;;-0.60;99.90;;;;;;5079969;28;20043;-75
2022/12/12 00:06:25;;;;;;;37.28;18.88;;;-0.60;99.90;;;;;;5087468;28;20028;-75
2022/12/12 00:08:51;;;;;;;36.47;19.05;;;-0.60;99.90;;;;;;5094604;28;20081;-75
2022/12/12 00:11:18;;;;;;;34.90;18.65;;;-0.50;99.90;;;;;;5081556;28;20591;-75
2022/12/12 00:13:44;;;;;;;36.35;19.05;;;-0.60;99.90;;;;;;5072272;28;20012;-75
2022/12/12 00:16:10;;;;;;;34.42;18.30;;;-0.70;99.90;;;;;;5084488;28;20540;-75
2022/12/12 00:18:37;;;;;;;34.13;17.48;;;-0.70;99.90;;;;;;5097710;28;20031;-75
2022/12/12 00:21:05;;;;;;;32.58;17.13;;;-0.80;99.90;;;;;;5078248;28;20019;-74
2022/12/12 00:23:31;;;;;;;32.28;18.05;;;-0.90;99.90;;;;;;5074902;28;20040;-75
2022/12/12 00:26:04;;;;;;;33.50;16.75;;;-0.90;99.90;;;;;;5079063;28;20109;-75
2022/12/12 00:28:30;;;;;;;36.75;18.27;;;-0.90;99.90;;;;;;5076673;28;20032;-75
2022/12/12 00:30:56;;;;;;;31.35;17.30;;;-1.00;99.90;;;;;;5084679;28;20028;-75
2022/12/12 00:33:22;;;;;;;30.65;16.40;;;-1.00;99.90;;;;;;5078760;28;20031;-75
2022/12/12 00:35:54;;;;;;;35.83;17.85;;;-1.00;99.90;;;;;;5076610;28;20024;-75
2022/12/12 00:38:22;;;;;;;25.65;13.23;;;-1.10;99.90;;;;;;5083184;28;20043;-75
2022/12/12 00:40:48;;;;;;;33.42;17.48;;;-1.20;99.90;;;;;;5078366;28;20067;-75
2022/12/12 00:43:14;;;;;;;34.47;17.73;;;-1.20;99.90;;;;;;5079347;28;20063;-75
2022/12/12 00:45:40;;;;;;;32.95;17.27;;;-1.20;99.90;;;;;;5078514;28;20043;-75
2022/12/12 00:48:06;;;;;;;34.58;18.05;;;-1.30;99.90;;;;;;5080160;28;20378;-75
2022/12/12 00:50:33;;;;;;;33.92;18.83;;;-1.30;99.90;;;;;;5080611;28;20089;-75
2022/12/12 00:52:59;;;;;;;36.78;17.80;;;-1.20;99.90;;;;;;5074912;28;20506;-74
2022/12/12 00:55:25;;;;;;;36.10;18.92;;;-1.10;99.90;;;;;;5063862;28;20047;-75
2022/12/12 00:57:51;;;;;;;41.00;19.23;;;-1.00;99.90;;;;;;5079161;28;20020;-75
2022/12/12 01:00:18;;;;;;;36.30;19.00;;;-0.80;99.90;;;;;;5077809;28;20093;-75
2022/12/12 01:02:43;;;;;;;39.00;19.83;;;-0.70;99.90;;;;;;5075179;28;20035;-75
2022/12/12 01:05:09;;;;;;;37.03;18.92;;;-0.70;99.90;;;;;;5082480;28;20658;-74
2022/12/12 01:07:35;;;;;;;36.45;18.02;;;-0.60;99.90;;;;;;5085400;28;20035;-74
2022/12/12 01:10:01;;;;;;;36.25;18.35;;;-0.50;99.90;;;;;;5082991;28;20481;-75
2022/12/12 01:12:27;;;;;;;36.58;18.52;;;-0.50;99.90;;;;;;5081246;28;20167;-75
2022/12/12 01:14:52;;;;;;;35.92;17.95;;;-0.50;99.90;;;;;;5069574;28;20028;-75
2022/12/12 01:17:18;;;;;;;33.42;16.85;;;-0.50;99.90;;;;;;5073888;28;20111;-74
2022/12/12 01:19:44;;;;;;;32.63;17.45;;;-0.50;99.90;;;;;;5076516;28;20028;-75
2022/12/12 01:22:09;;;;;;;36.50;18.17;;;-0.50;99.90;;;;;;5081427;28;20035;-74
2022/12/12 01:24:35;;;;;;;35.05;18.02;;;-0.50;99.90;;;;;;5077671;28;20024;-75
2022/12/12 01:27:01;;;;;;;33.85;18.33;;;-0.50;99.90;;;;;;5073351;28;20020;-75
2022/12/12 01:29:26;;;;;;;38.50;19.65;;;-0.50;99.90;;;;;;5078061;28;20028;-75
2022/12/12 01:31:52;;;;;;;32.70;17.38;;;-0.60;99.90;;;;;;5074354;28;20020;-75
2022/12/12 01:34:18;;;;;;;32.92;17.38;;;-0.60;99.90;;;;;;5079019;28;20046;-75
2022/12/12 01:36:43;;;;;;;35.53;18.70;;;-0.60;99.90;;;;;;5081412;28;20672;-74
2022/12/12 01:39:09;;;;;;;33.63;17.80;;;-0.70;99.90;;;;;;5078792;28;20028;-75
2022/12/12 01:41:35;;;;;;;34.92;18.50;;;-0.70;99.90;;;;;;5079812;28;20115;-74
2022/12/12 01:44:03;;;;;;;39.15;17.73;;;-0.70;99.90;;;;;;5080820;28;20728;-75
2022/12/12 01:46:43;;;;;;;34.28;17.80;;;-0.70;99.90;;;;;;5073963;28;20574;-75
2022/12/12 01:49:14;;;;;;;35.22;17.95;;;-0.70;99.90;;;;;;5081278;28;20042;-74
2022/12/12 01:51:41;;;;;;;35.10;18.58;;;-0.70;99.90;;;;;;5085330;28;20478;-75
2022/12/12 01:54:13;;;;;;;37.25;18.17;;;-0.70;99.90;;;;;;5082113;28;20034;-75
2022/12/12 01:56:42;;;;;;;37.90;19.00;;;-0.60;99.90;;;;;;5076201;28;20036;-74
2022/12/12 01:59:11;;;;;;;36.95;19.27;;;-0.60;99.90;;;;;;5073835;28;20024;-74
2022/12/12 02:01:38;;;;;;;36.92;18.50;;;-0.70;99.90;;;;;;5076978;28;20039;-74
2022/12/12 02:04:05;;;;;;;37.55;19.50;;;-0.70;99.90;;;;;;5078337;28;20074;-73
2022/12/12 02:06:31;;;;;;;40.05;20.15;;;-0.70;99.90;;;;;;5078425;28;20039;-74
2022/12/12 02:09:00;;;;;;;37.08;19.70;;;-0.70;99.90;;;;;;5076992;28;20040;-74
2022/12/12 02:11:31;;;;;;;38.28;18.70;;;-0.70;99.90;;;;;;5076591;28;20117;-75
2022/12/12 02:13:57;;;;;;;38.20;19.52;;;-0.70;99.90;;;;;;5074082;28;21194;-74
2022/12/12 02:16:58;;;;;;;34.83;18.58;;;-0.80;99.90;;;;;;5077783;28;20120;-74
2022/12/12 02:19:55;;;;;;;37.38;18.85;;;-0.80;99.90;;;;;;5071256;28;20093;-75
2022/12/12 02:23:02;;;;;;;34.45;18.15;;;-0.90;99.90;;;;;;5054090;28;20048;-74
2022/12/12 02:25:42;;;;;;;35.28;17.52;;;-0.90;99.90;;;;;;5077439;28;20027;-74
2022/12/12 02:28:35;;;;;;;38.58;18.55;;;-0.90;99.90;;;;;;5079374;28;20099;-74
2022/12/12 02:31:14;;;;;;;38.05;18.42;;;-1.00;99.90;;;;;;5048964;28;20032;-74
2022/12/12 02:33:43;;;;;;;32.25;17.23;;;-1.00;99.90;;;;;;5073247;28;20092;-74
2022/12/12 02:36:12;;;;;;;33.88;17.15;;;-1.00;99.90;;;;;;5078618;28;20032;-74
2022/12/12 02:39:00;;;;;;;38.50;18.40;;;-1.10;99.90;;;;;;5074918;28;20524;-74
2022/12/12 02:41:31;;;;;;;35.55;17.58;;;-1.10;99.90;;;;;;5073048;28;20052;-75
2022/12/12 02:44:00;;;;;;;35.65;17.52;;;-1.10;99.90;;;;;;5078157;28;20044;-75
2022/12/12 02:46:55;;;;;;;37.95;17.15;;;-1.20;99.90;;;;;;5074856;28;20036;-74
2022/12/12 02:49:39;;;;;;;32.22;16.65;;;-1.20;99.90;;;;;;5055305;28;20040;-75
2022/12/12 02:52:07;;;;;;;38.10;18.98;;;-1.30;99.90;;;;;;5068861;28;20597;-75
2022/12/12 02:54:33;;;;;;;38.83;18.77;;;-1.20;99.90;;;;;;5071193;28;20540;-75
2022/12/12 02:57:01;;;;;;;36.17;17.45;;;-1.20;99.90;;;;;;5073434;28;20612;-75
2022/12/12 02:59:34;;;;;;;36.45;18.13;;;-1.20;99.90;;;;;;5067107;28;20028;-74
2022/12/12 03:02:30;;;;;;;34.08;17.25;;;-1.20;99.90;;;;;;5074068;28;20534;-75
2022/12/12 03:08:08;;;;;;;34.05;17.08;;;-1.30;99.90;;;;;;5065782;28;20043;-74
2022/12/12 03:10:51;;;;;;;34.50;17.77;;;-1.30;99.90;;;;;;5069997;28;20089;-75
2022/12/12 03:13:38;;;;;;;35.78;17.35;;;-1.20;99.90;;;;;;5073543;28;20040;-75
2022/12/12 03:16:18;;;;;;;32.13;16.98;;;-1.20;99.90;;;;;;5066098;28;20020;-75
2022/12/12 03:18:57;;;;;;;32.53;16.27;;;-1.20;99.90;;;;;;5069810;28;21188;-72
2022/12/12 03:21:25;;;;;;;37.90;17.65;;;-1.20;99.90;;;;;;5068111;28;20541;-74
2022/12/12 03:23:55;;;;;;;36.28;17.40;;;-1.30;99.90;;;;;;5075877;28;20024;-75
2022/12/12 03:26:33;;;;;;;34.15;17.23;;;;;;;;;;5071341;28;20588;-74
2022/12/12 03:29:12;;;;;;;39.03;18.10;;;-1.50;99.90;;;;;;5073758;28;20092;-74
2022/12/12 03:31:42;;;;;;;35.03;17.35;;;-1.50;99.90;;;;;;5080018;28;20123;-74
2022/12/12 03:34:22;;;;;;;38.00;18.52;;;-1.50;99.90;;;;;;5075919;28;20052;-75
2022/12/12 03:37:00;;;;;;;37.28;17.65;;;-1.50;99.90;;;;;;5074356;28;20149;-74
2022/12/12 03:39:51;;;;;;;35.58;17.13;;;-1.50;99.90;;;;;;5070777;28;20127;-74
2022/12/12 03:42:26;;;;;;;34.50;16.55;;;-1.60;99.90;;;;;;5076493;28;20134;-74
2022/12/12 03:45:00;;;;;;;38.13;18.15;;;-1.70;99.90;;;;;;5072479;28;20693;-74
2022/12/12 03:47:35;;;;;;;35.22;17.40;;;-1.70;99.90;;;;;;5075386;28;20032;-74
2022/12/12 03:50:10;;;;;;;38.17;18.27;;;-1.70;99.90;;;;;;5071621;28;20024;-74
2022/12/12 03:52:50;;;;;;;38.60;18.63;;;-1.80;99.90;;;;;;5071003;28;20043;-74
2022/12/12 03:55:34;;;;;;;36.63;18.40;;;-1.80;99.90;;;;;;5073878;28;20749;-74
2022/12/12 03:58:08;;;;;;;40.88;18.90;;;-1.80;99.90;;;;;;5077677;28;20363;-75
2022/12/12 04:00:36;;;;;;;36.38;18.00;;;-1.80;99.90;;;;;;5067563;28;20032;-75
2022/12/12 04:03:07;;;;;;;32.97;16.90;;;-1.90;99.90;;;;;;5076745;28;20025;-73
2022/12/12 04:06:25;;;;;;;34.67;17.50;;;-1.90;99.90;;;;;;5070687;28;20437;-74
2022/12/12 04:08:31;;;;;;;38.63;18.25;;;-1.90;99.90;;;;;;5065147;28;20066;-74
2022/12/12 04:13:56;;;;;;;36.15;17.75;;;-2.00;99.90;;;;;;5080853;28;20529;-74
2022/12/12 04:16:35;;;;;;;36.60;17.75;;;-2.00;99.90;;;;;;5078491;28;20038;-75
2022/12/12 04:19:10;;;;;;;32.80;16.63;;;-2.10;99.90;;;;;;5078936;28;20125;-75
2022/12/12 04:24:48;;;;;;;36.03;17.60;;;-2.10;99.90;;;;;;5070956;28;20125;-75
2022/12/12 04:27:39;;;;;;;42.85;18.92;;;-2.10;99.90;;;;;;5076712;28;20032;-75
2022/12/12 04:30:11;;;;;;;40.13;19.30;;;-2.10;99.90;;;;;;5074307;28;20036;-74
2022/12/12 04:32:57;;;;;;;36.40;18.85;;;-2.10;99.90;;;;;;5077697;28;20032;-74
2022/12/12 04:35:38;;;;;;;34.50;17.63;;;-2.10;99.90;;;;;;5080389;28;20067;-75
2022/12/12 04:38:25;;;;;;;36.22;17.70;;;-2.20;99.90;;;;;;5073639;28;22302;-74
2022/12/12 04:40:54;;;;;;;33.90;16.50;;;-2.20;99.90;;;;;;5080326;28;20059;-74
2022/12/12 04:43:24;;;;;;;41.00;17.85;;;-2.30;99.90;;;;;;5076812;28;20500;-74
2022/12/12 04:45:55;;;;;;;33.25;16.85;;;-2.20;99.90;;;;;;5075398;28;20573;-74
2022/12/12 04:48:29;;;;;;;33.50;17.42;;;-2.20;99.90;;;;;;5079833;28;20076;-74
2022/12/12 04:50:58;;;;;;;34.03;17.05;;;-2.20;99.90;;;;;;5080128;28;20024;-75
2022/12/12 04:53:38;;;;;;;33.20;16.52;;;-2.20;99.90;;;;;;5077566;28;20028;-74
2022/12/12 04:56:08;;;;;;;35.92;16.55;;;-2.20;99.90;;;;;;5069219;28;20024;-75
2022/12/12 04:58:35;;;;;;;34.30;16.73;;;-2.20;99.90;;;;;;5078795;28;21918;-74
2022/12/12 05:01:22;;;;;;;36.10;16.90;;;-2.20;99.90;;;;;;5072843;28;20027;-74
2022/12/12 05:03:59;;;;;;;39.58;16.77;;;-2.20;99.90;;;;;;5078173;28;20111;-74
2022/12/12 05:06:47;;;;;;;30.73;15.13;;;-2.20;99.90;;;;;;5076714;28;20090;-74
2022/12/12 05:09:15;;;;;;;32.85;15.68;;;-2.20;99.90;;;;;;5085349;28;20036;-74
2022/12/12 05:11:41;;;;;;;29.48;14.48;;;-2.20;99.90;;;;;;5080732;28;20209;-75
2022/12/12 05:14:08;;;;;;;31.27;14.32;;;-2.30;99.90;;;;;;5073947;28;20031;-75
2022/12/12 05:16:51;;;;;;;29.20;14.50;;;-2.30;99.90;;;;;;5079884;28;20019;-75
2022/12/12 05:19:17;;;;;;;;;;;-2.30;99.90;;;;;;5076870;28;20028;-75
2022/12/12 05:21:42;;;;;;;26.58;13.27;;;-2.50;99.90;;;;;;5080607;28;19911;-75
2022/12/12 05:24:08;;;;;;;27.85;13.77;;;-2.50;99.90;;;;;;5084804;28;20024;-75
2022/12/12 05:26:35;;;;;;;25.45;12.80;;;-2.60;99.90;;;;;;5077924;28;20061;-75
2022/12/12 05:29:02;;;;;;;26.67;13.40;;;-2.60;99.90;;;;;;5071543;28;20020;-75
2022/12/12 05:31:28;;;;;;;29.75;13.27;;;-2.70;99.90;;;;;;5081857;28;22013;-75
2022/12/12 05:33:53;;;;;;;32.70;14.55;;;-2.70;99.90;;;;;;5076565;28;20549;-75
2022/12/12 05:36:20;;;;;;;27.10;13.32;;;-2.70;99.90;;;;;;5079106;28;20036;-75
2022/12/12 05:38:46;;;;;;;28.45;13.93;;;-2.70;99.90;;;;;;5078106;28;20028;-75
2022/12/12 05:41:12;;;;;;;29.38;13.20;;;-2.70;99.90;;;;;;5079113;28;20040;-74
2022/12/12 05:43:38;;;;;;;25.17;12.43;;;-2.70;99.90;;;;;;5077353;28;20032;-75
2022/12/12 05:46:05;;;;;;;24.25;11.98;;;-2.80;99.90;;;;;;5079650;28;20039;-75
2022/12/12 05:48:31;;;;;;;26.20;12.75;;;-2.80;99.90;;;;;;5080128;28;20449;-72
2022/12/12 05:50:58;;;;;;;26.55;12.50;;;-2.80;99.90;;;;;;5080477;28;20739;-74
2022/12/12 05:53:24;;;;;;;26.40;12.73;;;-2.80;99.90;;;;;;5078475;28;20580;-75
2022/12/12 05:55:50;;;;;;;22.27;12.40;;;-2.80;99.90;;;;;;5076802;28;20032;-74
2022/12/12 05:58:16;;;;;;;22.75;11.40;;;-2.90;99.90;;;;;;5077723;28;20069;-75
2022/12/12 06:00:42;;;;;;;23.20;11.25;;;-3.10;99.90;;;;;;5084001;28;21017;-75
2022/12/12 06:03:07;;;;;;;23.48;10.93;;;-3.30;99.90;;;;;;5078370;28;20056;-74
2022/12/12 06:05:33;;;;;;;25.48;12.40;;;-3.30;99.90;;;;;;5079718;28;20042;-75
2022/12/12 06:07:59;;;;;;;25.85;12.63;;;-3.40;99.90;;;;;;5081834;28;20055;-75
2022/12/12 06:10:24;;;;;;;29.92;14.32;;;-3.40;99.90;;;;;;5079958;28;20683;-74
2022/12/12 06:12:50;;;;;;;29.77;14.23;;;-3.40;99.90;;;;;;5080088;28;20035;-74
2022/12/12 06:15:16;;;;;;;34.38;15.40;;;-3.30;99.90;;;;;;5075248;28;20111;-73
2022/12/12 06:17:41;;;;;;;28.80;15.05;;;-3.30;99.90;;;;;;5073145;28;20090;-74
2022/12/12 06:20:07;;;;;;;28.92;14.98;;;-3.20;99.90;;;;;;5076635;28;20028;-75
2022/12/12 06:22:35;;;;;;;29.98;14.55;;;-3.10;99.90;;;;;;5075108;28;20704;-76
2022/12/12 06:25:01;;;;;;;31.30;14.98;;;-3.10;99.90;;;;;;5080663;28;20038;-73
2022/12/12 06:27:27;;;;;;;31.67;15.30;;;-3.10;99.90;;;;;;5077215;28;20047;-74
2022/12/12 06:29:52;;;;;;;28.67;15.15;;;-3.10;99.90;;;;;;5074529;28;20015;-74
2022/12/12 06:32:18;;;;;;;28.10;14.43;;;-3.20;99.90;;;;;;5072701;28;20099;-73
2022/12/12 06:34:44;;;;;;;28.02;14.23;;;-3.20;99.90;;;;;;5078197;28;20016;-75
2022/12/12 06:37:09;;;;;;;28.25;13.40;;;-3.20;99.90;;;;;;5074307;28;20488;-74
2022/12/12 06:39:35;;;;;;;26.83;13.88;;;-3.20;99.90;;;;;;5078226;28;20126;-74
2022/12/12 06:42:01;;;;;;;31.17;14.05;;;-3.20;99.90;;;;;;5076230;28;20100;-74
2022/12/12 06:44:27;;;;;;;29.00;13.93;;;-3.10;99.90;;;;;;5076436;28;20123;-74
2022/12/12 06:46:52;;;;;;;32.15;15.82;;;-3.10;99.90;;;;;;5075895;28;20028;-74
2022/12/12 06:49:18;;;;;;;35.67;16.40;;;-3.10;99.90;;;;;;5079349;28;20028;-74
2022/12/12 06:51:44;;;;;;;33.13;16.05;;;-3.10;99.90;;;;;;5076129;28;20017;-74
2022/12/12 06:54:14;;;;;;;34.30;16.25;;;-3.10;99.90;;;;;;5075905;28;20107;-74
2022/12/12 06:56:40;;;;;;;34.40;16.00;;;-3.10;99.90;;;;;;5074811;28;20020;-74
2022/12/12 06:59:06;;;;;;;34.28;16.15;;;-3.10;99.90;;;;;;5069821;28;20077;-75
2022/12/12 07:01:32;;;;;;;33.13;15.68;;;-3.10;99.90;;;;;;5063269;28;20082;-75
2022/12/12 07:03:58;;;;;;;31.52;15.52;;;-3.10;99.90;;;;;;5067374;28;20797;-75
2022/12/12 07:06:24;;;;;;;36.40;16.83;;;-3.10;99.90;;;;;;5069760;28;20076;-76
2022/12/12 07:08:50;;;;;;;29.70;14.77;;;-3.10;99.90;;;;;;5060057;28;20036;-76
2022/12/12 07:11:21;;;;;;;31.88;14.93;;;-3.10;99.90;;;;;;5070483;28;20630;-75
2022/12/12 07:13:46;;;;;;;31.60;15.63;;;-3.20;99.90;;;;;;5072414;28;20478;-76
2022/12/12 07:16:12;;;;;;;37.72;16.58;;;-3.40;99.90;;;;;;5078929;28;20058;-76
2022/12/12 07:18:38;;;;;;;33.30;14.82;;;-3.40;99.90;;;;;;5065380;28;20089;-76
2022/12/12 07:21:06;;;;;;;33.65;15.20;;;-3.50;99.90;;;;;;5062907;28;20473;-76
2022/12/12 07:23:32;;;;;;;31.75;14.30;;;-3.70;99.90;;;;;;5078017;28;20020;-76
2022/12/12 07:25:58;;;;;;;33.85;15.60;;;-3.90;99.90;;;;;;5066576;28;20028;-76
2022/12/12 07:28:24;;;;;;;32.60;15.38;;;-4.00;99.90;;;;;;5071984;28;20038;-77
2022/12/12 07:30:50;;;;;;;34.72;17.02;;;-4.00;99.90;;;;;;5073049;28;20077;-76
2022/12/12 07:33:16;;;;;;;31.17;15.07;;;-3.90;99.90;;;;;;5081260;28;20481;-76
2022/12/12 07:35:42;;;;;;;32.15;14.77;;;-3.90;99.90;;;;;;5073991;28;20043;-76
2022/12/12 07:38:09;;;;;;;32.47;15.15;;;-3.90;99.90;;;;;;5067393;28;20501;-76
2022/12/12 07:40:35;;;;;;;36.72;15.90;;;-3.90;99.90;;;;;;5073784;28;20021;-76
2022/12/12 07:43:01;;;;;;;39.50;17.77;;;-4.10;99.90;;;;;;5081646;28;20026;-76
2022/12/12 07:45:27;;;;;;;41.58;19.83;;;-4.20;99.90;;;;;;5083426;28;20120;-76
2022/12/12 07:47:53;;;;;;;36.10;19.35;;;-4.30;99.90;;;;;;5084875;28;20111;-76
2022/12/12 07:50:18;;;;;;;34.25;17.35;;;-4.40;99.90;;;;;;5084959;28;20083;-76
2022/12/12 07:52:44;;;;;;;32.47;15.50;;;-4.40;99.90;;;;;;5080711;28;20031;-76
2022/12/12 07:55:10;;;;;;;32.30;14.65;;;-4.40;99.90;;;;;;5079668;28;20504;-76
2022/12/12 07:57:36;;;;;;;32.13;14.30;;;-4.40;99.90;;;;;;5080182;28;20095;-75
2022/12/12 08:00:05;;;;;;;32.42;15.70;;;-4.40;99.90;;;;;;5084444;28;20048;-76
2022/12/12 08:02:31;;;;;;;33.38;16.70;;;-4.40;99.90;;;;;;5080682;28;20032;-76
2022/12/12 08:04:57;;;;;;;37.88;17.42;;;-4.40;99.90;;;;;;5083270;28;20031;-76
2022/12/12 08:07:23;;;;;;;41.20;18.38;;;-4.40;99.90;;;;;;5079471;28;20035;-76
2022/12/12 08:09:49;;;;;;;42.13;20.63;;;-4.50;99.90;;;;;;5079995;28;20020;-76
2022/12/12 08:12:14;;;;;;;40.28;20.83;;;-4.50;99.90;;;;;;5080223;28;20528;-76
2022/12/12 08:14:40;;;;;;;39.33;21.20;;;-4.40;99.90;;;;;;5073430;28;20457;-76
2022/12/12 08:17:05;;;;;;;39.60;21.08;;;-4.40;99.90;;;;;;5074262;28;20452;-76
2022/12/12 08:19:32;;;;;;;40.00;19.38;;;-4.30;99.90;;;;;;5078485;28;20035;-76
2022/12/12 08:21:57;;;;;;;44.53;23.20;;;-4.30;99.90;;;;;;5076883;28;20059;-74
2022/12/12 08:24:23;;;;;;;42.63;20.70;;;-4.20;99.90;;;;;;5078831;28;20656;-76
2022/12/12 08:26:51;;;;;;;39.00;20.10;;;-4.20;99.90;;;;;;5072565;28;20039;-76
2022/12/12 08:29:17;;;;;;;47.92;22.20;;;-4.20;99.90;;;;;;5084792;28;20032;-76
2022/12/12 08:31:43;;;;;;;49.67;22.02;;;-4.20;99.90;;;;;;5082386;28;20397;-76
2022/12/12 08:34:08;;;;;;;42.08;20.67;;;-4.20;99.90;;;;;;5073750;28;20118;-76
2022/12/12 08:36:35;;;;;;;44.50;20.33;;;-4.30;99.90;;;;;;5076267;28;20024;-76
2022/12/12 08:39:09;;;;;;;40.78;19.67;;;-4.20;99.90;;;;;;5083547;28;20504;-76
2022/12/12 08:41:38;;;;;;;42.08;19.13;;;-4.20;99.90;;;;;;5079835;28;20016;-76
2022/12/12 08:44:04;;;;;;;41.90;19.02;;;-4.20;99.90;;;;;;5068595;28;20177;-76
2022/12/12 08:46:30;;;;;;;41.95;19.10;;;-4.10;99.90;;;;;;5072953;28;20047;-76
2022/12/12 08:48:56;;;;;;;48.22;21.10;;;-4.10;99.90;;;;;;5075518;28;20031;-76
2022/12/12 08:51:22;;;;;;;42.25;19.55;;;-4.00;99.90;;;;;;5079377;28;20028;-76
2022/12/12 08:53:49;;;;;;;39.08;18.75;;;-3.90;99.90;;;;;;5079376;28;20028;-76
2022/12/12 08:56:16;;;;;;;42.20;18.52;;;-3.80;99.90;;;;;;5075543;28;20394;-76
2022/12/12 08:58:42;;;;;;;39.85;18.10;;;-3.70;99.90;;;;;;5077360;28;20051;-76
2022/12/12 09:01:16;;;;;;;42.85;20.95;;;-3.60;99.90;;;;;;5073840;28;20024;-76
2022/12/12 09:03:42;;;;;;;42.30;18.65;;;-3.60;99.90;;;;;;5066870;28;20596;-76
2022/12/12 09:06:11;;;;;;;40.13;18.48;;;-3.50;99.90;;;;;;5081960;28;20062;-75
2022/12/12 09:08:38;;;;;;;41.30;19.73;;;-3.40;99.90;;;;;;5089388;28;20020;-76
2022/12/12 09:11:04;;;;;;;39.50;18.67;;;-3.40;99.90;;;;;;5080771;28;20028;-76
2022/12/12 09:13:30;;;;;;;42.03;20.52;;;-3.40;99.90;;;;;;5085088;28;20093;-76
2022/12/12 09:15:56;;;;;;;42.72;20.23;;;-3.40;99.90;;;;;;5073169;28;20537;-76
2022/12/12 09:18:22;;;;;;;47.53;20.63;;;-3.40;99.90;;;;;;5085961;28;20024;-76
2022/12/12 09:20:49;;;;;;;49.13;21.15;;;-3.40;99.90;;;;;;5085735;28;20513;-76
2022/12/12 09:23:16;;;;;;;47.47;20.23;;;-3.40;99.90;;;;;;5077294;28;20547;-76
2022/12/12 09:25:42;;;;;;;48.40;20.65;;;-3.40;99.90;;;;;;5088839;28;20514;-76
2022/12/12 09:28:09;;;;;;;45.60;19.98;;;-3.40;99.90;;;;;;5086219;28;20028;-76
2022/12/12 09:30:34;;;;;;;51.20;20.98;;;-3.30;99.90;;;;;;5089273;28;20035;-76
2022/12/12 09:33:00;;;;;;;59.90;24.70;;;-3.40;99.90;;;;;;5074838;28;20032;-76
2022/12/12 09:35:25;;;;;;;50.17;22.00;;;-3.40;99.90;;;;;;5083364;28;20496;-76
2022/12/12 09:37:52;;;;;;;55.72;23.15;;;-3.30;99.90;;;;;;5085869;28;20067;-75
2022/12/12 09:40:47;;;;;;;51.95;21.50;;;-3.30;99.90;;;;;;5070921;28;20115;-75
2022/12/12 09:43:18;;;;;;;56.70;23.42;;;-3.30;99.90;;;;;;5055638;28;20028;-76
2022/12/12 09:45:44;;;;;;;52.08;21.55;;;-3.30;99.90;;;;;;5084034;28;20048;-76
2022/12/12 09:48:17;;;;;;;48.08;20.45;;;-3.30;99.90;;;;;;5088438;28;20577;-75
2022/12/12 09:50:46;;;;;;;51.67;19.38;;;-3.30;99.90;;;;;;5083194;28;20493;-76
2022/12/12 09:53:16;;;;;;;58.90;21.25;;;-3.20;99.90;;;;;;5076939;28;20032;-76
2022/12/12 09:56:03;;;;;;;46.53;20.73;;;-3.20;99.90;;;;;;5068331;28;20033;-76
2022/12/12 09:58:35;;;;;;;48.15;20.63;;;-3.20;99.90;;;;;;5078951;28;20051;-76
2022/12/12 10:01:21;;;;;;;52.20;20.08;;;-3.20;99.90;;;;;;5073591;28;20039;-75
2022/12/12 10:04:09;;;;;;;46.88;20.35;;;-3.20;99.90;;;;;;5084092;28;20051;-76
2022/12/12 10:06:46;;;;;;;46.13;20.48;;;-3.10;99.90;;;;;;5071062;28;20081;-76
2022/12/12 10:09:31;;;;;;;49.85;22.15;;;-3.10;99.90;;;;;;5084541;28;20554;-76
2022/12/12 10:11:59;;;;;;;49.70;22.10;;;-3.00;99.90;;;;;;5086107;28;20538;-76
2022/12/12 10:14:40;;;;;;;59.80;23.35;;;-3.00;99.90;;;;;;5087612;28;20587;-76
2022/12/12 10:17:23;;;;;;;50.30;21.67;;;-2.90;99.90;;;;;;5085484;28;20056;-76
2022/12/12 10:19:57;;;;;;;51.88;22.83;;;-2.90;99.90;;;;;;5079038;28;20036;-76
2022/12/12 10:22:29;;;;;;;50.17;21.38;;;-2.90;99.90;;;;;;5086195;28;20023;-76
2022/12/12 10:25:02;;;;;;;52.63;21.30;;;-2.90;99.90;;;;;;5086087;28;20040;-76
2022/12/12 10:27:28;;;;;;;64.82;20.95;;;-2.90;99.90;;;;;;5079820;28;20032;-76
2022/12/12 10:29:59;;;;;;;63.33;21.38;;;-2.90;99.90;;;;;;5087303;28;20032;-76
2022/12/12 10:32:48;;;;;;;47.13;21.73;;;-3.00;99.90;;;;;;5085875;28;20040;-76
2022/12/12 10:35:31;;;;;;;49.13;22.17;;;-3.00;99.90;;;;;;5085412;28;20053;-75
2022/12/12 10:38:29;;;;;;;53.42;22.05;;;-2.90;99.90;;;;;;5077420;28;20537;-76
2022/12/12 10:41:09;;;;;;;52.40;23.30;;;-2.80;99.90;;;;;;5053002;28;20097;-76
2022/12/12 10:44:04;;;;;;;48.88;22.75;;;-2.80;99.90;;;;;;5085787;28;20027;-76
2022/12/12 10:46:35;;;;;;;86.90;24.45;;;-2.70;99.90;;;;;;5086061;28;20035;-76
2022/12/12 10:49:01;;;;;;;53.08;24.20;;;-2.70;99.90;;;;;;5087737;28;20020;-75
2022/12/12 10:51:28;;;;;;;49.45;22.52;;;-2.60;99.90;;;;;;5068475;28;20473;-75
2022/12/12 10:53:54;;;;;;;52.33;23.02;;;-2.60;99.90;;;;;;5072758;28;20101;-76
2022/12/12 10:56:23;;;;;;;52.30;23.50;;;-2.60;99.90;;;;;;5076221;28;20502;-76
2022/12/12 10:59:00;;;;;;;55.35;22.75;;;-2.60;99.90;;;;;;5084083;28;20028;-76
2022/12/12 11:01:35;;;;;;;53.33;24.20;;;-2.50;99.90;;;;;;5085342;28;20032;-76
2022/12/12 11:04:03;;;;;;;74.57;24.02;;;-2.50;99.90;;;;;;5074172;28;20039;-77
2022/12/12 11:06:28;;;;;;;49.40;23.05;;;-2.50;99.90;;;;;;5074296;28;20656;-71
2022/12/12 11:09:04;;;;;;;52.40;23.98;;;-2.60;99.90;;;;;;5076204;28;20024;-71
2022/12/12 11:11:30;;;;;;;56.30;23.77;;;-2.60;99.90;;;;;;5085212;28;20045;-71
2022/12/12 11:14:01;;;;;;;79.85;23.95;;;-2.60;99.90;;;;;;5082531;28;20107;-71
2022/12/12 11:16:29;;;;;;;62.05;22.45;;;-2.60;99.90;;;;;;5083484;28;20064;-71
2022/12/12 11:19:04;;;;;;;100.03;23.48;;;-2.60;99.90;;;;;;5082968;28;20020;-71
2022/12/12 11:21:33;;;;;;;48.08;22.70;;;-2.60;99.90;;;;;;5074235;28;20024;-71
2022/12/12 11:24:02;;;;;;;88.00;26.10;;;-2.70;99.90;;;;;;5081867;28;20028;-71
2022/12/12 11:26:28;;;;;;;52.63;24.15;;;-2.60;99.90;;;;;;5079233;28;20390;-72
2022/12/12 11:29:01;;;;;;;56.10;25.10;;;-2.60;99.90;;;;;;5079580;28;20138;-71
2022/12/12 11:31:30;;;;;;;104.75;25.33;;;-2.60;99.90;;;;;;5083374;28;20062;-71
2022/12/12 11:34:00;;;;;;;56.70;25.63;;;-2.70;99.90;;;;;;5085805;28;20127;-71
2022/12/12 11:36:31;;;;;;;66.55;27.30;;;-2.70;99.90;;;;;;5072810;28;20086;-72
2022/12/12 11:38:59;;;;;;;64.07;27.10;;;-2.60;99.90;;;;;;5072669;28;20091;-71
2022/12/12 11:41:25;;;;;;;59.03;25.77;;;-2.50;99.90;;;;;;5068021;28;20035;-72
2022/12/12 11:43:50;;;;;;;74.53;27.27;;;-2.60;99.90;;;;;;5074566;28;20063;-71
2022/12/12 11:46:19;;;;;;;56.72;25.65;;;-2.60;99.90;;;;;;5081802;28;20500;-73
2022/12/12 11:48:50;;;;;;;66.45;27.23;;;-2.50;99.90;;;;;;5073615;28;20406;-72
2022/12/12 11:51:34;;;;;;;81.82;27.13;;;-2.50;99.90;;;;;;5075417;28;20624;-72
2022/12/12 11:54:02;;;;;;;56.30;25.52;;;-2.50;99.90;;;;;;5077357;28;20402;-73
2022/12/12 11:56:46;;;;;;;62.65;27.15;;;-2.50;99.90;;;;;;5072769;28;21503;-72
2022/12/12 11:59:22;;;;;;;60.72;27.38;;;-2.50;99.90;;;;;;5078127;28;20624;-72
2022/12/12 12:01:58;;;;;;;58.83;27.92;;;-2.40;99.90;;;;;;5080386;28;20028;-70
2022/12/12 12:04:43;;;;;;;64.57;28.52;;;-2.40;99.90;;;;;;5059784;28;20087;-71
2022/12/12 12:07:23;;;;;;;75.10;26.35;;;-2.30;99.90;;;;;;5082716;28;20448;-72
2022/12/12 12:10:02;;;;;;;64.55;27.15;;;-2.40;99.90;;;;;;5075455;28;20162;-71
2022/12/12 12:13:03;;;;;;;54.78;25.08;;;-2.40;99.90;;;;;;5069837;28;20039;-71
2022/12/12 12:15:34;;;;;;;56.00;26.23;;;-2.60;99.90;;;;;;5028002;28;20044;-71
2022/12/12 12:18:25;;;;;;;54.03;25.60;;;-2.60;99.90;;;;;;5083655;28;20352;-72
2022/12/12 12:21:12;;;;;;;50.38;24.20;;;-2.50;99.90;;;;;;5081871;28;20067;-71
2022/12/12 12:24:10;;;;;;;53.97;24.83;;;-2.50;99.90;;;;;;5076320;28;20563;-70
2022/12/12 12:26:51;;;;;;;128.38;24.45;;;-2.60;99.90;;;;;;5068845;28;20032;-71
2022/12/12 12:29:38;;;;;;;54.58;23.13;;;-2.60;99.90;;;;;;5077511;28;20405;-71
2022/12/12 12:32:25;;;;;;;78.60;25.17;;;-2.70;99.90;;;;;;5081321;28;20123;-71
2022/12/12 12:35:12;;;;;;;64.40;25.75;;;-2.70;99.90;;;;;;5081221;28;20406;-71
2022/12/12 12:37:51;;;;;;;70.10;24.35;;;-2.80;99.90;;;;;;5075891;28;20108;-71
2022/12/12 12:40:40;;;;;;;72.07;26.38;;;-2.90;99.90;;;;;;5081256;28;20135;-71
2022/12/12 12:43:14;;;;;;;56.45;25.20;;;-2.90;99.90;;;;;;5068557;28;20401;-71
2022/12/12 12:45:44;;;;;;;64.07;27.58;;;-2.90;99.90;;;;;;5078807;28;20145;-71
2022/12/12 12:48:28;;;;;;;59.95;25.17;;;-2.90;99.90;;;;;;5076353;28;20029;-71
2022/12/12 12:50:53;;;;;;;61.92;27.08;;;-2.80;99.90;;;;;;5071136;28;20525;-73
2022/12/12 12:53:29;;;;;;;56.55;26.25;;;-2.70;99.90;;;;;;5096272;28;20024;-74
2022/12/12 12:56:00;;;;;;;57.42;26.23;;;-2.70;99.90;;;;;;5071080;28;20109;-73
2022/12/12 12:58:31;;;;;;;62.63;28.58;;;-2.70;99.90;;;;;;5069094;28;20031;-73